sensor_id;sensor_type;location;lat;lon;timestamp;P1;durP1;ratioP1;P2;durP2;ratioP2
59145;SDS011;44928;53.074;6.646;2023-03-23T00:01:09;15.80;;;9.20;;
59145;SDS011;44928;53.074;6.646;2023-03-23T00:03:40;14.60;;;8.40;;
59145;SDS011;44928;53.074;6.646;2023-03-23T00:06:08;13.60;;;8.07;;
59145;SDS011;44928;53.074;6.646;2023-03-23T00:08:35;12.60;;;7.80;;
59145;SDS011;44928;53.074;6.646;2023-03-23T00:11:06;14.32;;;8.25;;
59145;SDS011;44928;53.074;6.646;2023-03-23T00:13:32;13.30;;;8.05;;
59145;SDS011;44928;53.074;6.646;2023-03-23T00:15:58;11.88;;;6.85;;
59145;SDS011;44928;53.074;6.646;2023-03-23T00:18:24;14.00;;;7.63;;
59145;SDS011;44928;53.074;6.646;2023-03-23T00:20:56;14.63;;;8.27;;
59145;SDS011;44928;53.074;6.646;2023-03-23T00:23:23;13.02;;;6.97;;
59145;SDS011;44928;53.074;6.646;2023-03-23T00:25:54;11.50;;;6.90;;
59145;SDS011;44928;53.074;6.646;2023-03-23T00:28:24;15.73;;;7.20;;
59145;SDS011;44928;53.074;6.646;2023-03-23T00:31:04;12.50;;;7.00;;
59145;SDS011;44928;53.074;6.646;2023-03-23T00:33:32;11.02;;;7.35;;
59145;SDS011;44928;53.074;6.646;2023-03-23T00:36:10;11.43;;;7.15;;
59145;SDS011;44928;53.074;6.646;2023-03-23T00:38:37;11.50;;;6.43;;
59145;SDS011;44928;53.074;6.646;2023-03-23T00:41:05;15.73;;;7.32;;
59145;SDS011;44928;53.074;6.646;2023-03-23T00:43:31;9.63;;;6.03;;
59145;SDS011;44928;53.074;6.646;2023-03-23T00:46:01;11.50;;;6.95;;
59145;SDS011;44928;53.074;6.646;2023-03-23T00:48:33;11.43;;;6.28;;
59145;SDS011;44928;53.074;6.646;2023-03-23T00:51:00;11.13;;;6.45;;
59145;SDS011;44928;53.074;6.646;2023-03-23T00:53:31;10.52;;;5.97;;
59145;SDS011;44928;53.074;6.646;2023-03-23T00:55:58;13.00;;;6.18;;
59145;SDS011;44928;53.074;6.646;2023-03-23T00:58:24;15.07;;;6.85;;
59145;SDS011;44928;53.074;6.646;2023-03-23T01:00:50;13.38;;;7.05;;
59145;SDS011;44928;53.074;6.646;2023-03-23T01:03:16;12.27;;;6.65;;
59145;SDS011;44928;53.074;6.646;2023-03-23T01:05:44;14.77;;;7.95;;
59145;SDS011;44928;53.074;6.646;2023-03-23T01:08:12;8.75;;;4.03;;
59145;SDS011;44928;53.074;6.646;2023-03-23T01:10:39;9.60;;;5.10;;
59145;SDS011;44928;53.074;6.646;2023-03-23T01:13:06;13.40;;;5.40;;
59145;SDS011;44928;53.074;6.646;2023-03-23T01:15:32;11.13;;;5.00;;
59145;SDS011;44928;53.074;6.646;2023-03-23T01:17:58;9.43;;;5.32;;
59145;SDS011;44928;53.074;6.646;2023-03-23T01:20:24;12.02;;;5.68;;
59145;SDS011;44928;53.074;6.646;2023-03-23T01:22:51;11.52;;;5.78;;
59145;SDS011;44928;53.074;6.646;2023-03-23T01:25:18;11.82;;;5.80;;
59145;SDS011;44928;53.074;6.646;2023-03-23T01:27:44;12.85;;;7.13;;
59145;SDS011;44928;53.074;6.646;2023-03-23T01:30:11;11.95;;;6.03;;
59145;SDS011;44928;53.074;6.646;2023-03-23T01:32:37;13.15;;;6.10;;
59145;SDS011;44928;53.074;6.646;2023-03-23T01:35:04;10.55;;;5.80;;
59145;SDS011;44928;53.074;6.646;2023-03-23T01:37:31;10.35;;;4.97;;
59145;SDS011;44928;53.074;6.646;2023-03-23T01:39:57;10.82;;;4.65;;
59145;SDS011;44928;53.074;6.646;2023-03-23T01:42:30;9.30;;;4.32;;
59145;SDS011;44928;53.074;6.646;2023-03-23T01:47:56;10.93;;;4.73;;
59145;SDS011;44928;53.074;6.646;2023-03-23T01:50:36;9.55;;;4.03;;
59145;SDS011;44928;53.074;6.646;2023-03-23T01:53:07;10.02;;;4.22;;
59145;SDS011;44928;53.074;6.646;2023-03-23T01:55:34;8.13;;;4.03;;
59145;SDS011;44928;53.074;6.646;2023-03-23T01:58:03;9.93;;;4.03;;
59145;SDS011;44928;53.074;6.646;2023-03-23T02:00:31;8.10;;;3.80;;
59145;SDS011;44928;53.074;6.646;2023-03-23T02:02:58;11.20;;;4.03;;
59145;SDS011;44928;53.074;6.646;2023-03-23T02:05:28;9.63;;;4.13;;
59145;SDS011;44928;53.074;6.646;2023-03-23T02:07:58;11.38;;;4.45;;
59145;SDS011;44928;53.074;6.646;2023-03-23T02:10:29;9.82;;;3.53;;
59145;SDS011;44928;53.074;6.646;2023-03-23T02:12:56;11.13;;;4.05;;
59145;SDS011;44928;53.074;6.646;2023-03-23T02:15:24;9.60;;;3.97;;
59145;SDS011;44928;53.074;6.646;2023-03-23T02:18:01;8.85;;;3.80;;
59145;SDS011;44928;53.074;6.646;2023-03-23T02:20:43;9.63;;;4.07;;
59145;SDS011;44928;53.074;6.646;2023-03-23T02:23:22;9.88;;;3.50;;
59145;SDS011;44928;53.074;6.646;2023-03-23T02:34:50;8.00;;;2.97;;
59145;SDS011;44928;53.074;6.646;2023-03-23T02:37:32;7.93;;;2.97;;
59145;SDS011;44928;53.074;6.646;2023-03-23T02:42:36;10.18;;;3.72;;
59145;SDS011;44928;53.074;6.646;2023-03-23T02:45:07;9.98;;;3.50;;
59145;SDS011;44928;53.074;6.646;2023-03-23T02:47:36;9.25;;;3.55;;
59145;SDS011;44928;53.074;6.646;2023-03-23T02:50:05;10.50;;;3.53;;
59145;SDS011;44928;53.074;6.646;2023-03-23T02:52:35;9.20;;;3.92;;
59145;SDS011;44928;53.074;6.646;2023-03-23T02:55:03;7.35;;;3.25;;
59145;SDS011;44928;53.074;6.646;2023-03-23T02:57:30;8.63;;;3.30;;
59145;SDS011;44928;53.074;6.646;2023-03-23T02:59:57;7.25;;;2.83;;
59145;SDS011;44928;53.074;6.646;2023-03-23T03:02:24;9.45;;;3.45;;
59145;SDS011;44928;53.074;6.646;2023-03-23T03:05:04;8.32;;;3.40;;
59145;SDS011;44928;53.074;6.646;2023-03-23T03:08:00;6.90;;;2.80;;
59145;SDS011;44928;53.074;6.646;2023-03-23T03:11:04;7.88;;;3.30;;
59145;SDS011;44928;53.074;6.646;2023-03-23T03:13:35;8.15;;;2.90;;
59145;SDS011;44928;53.074;6.646;2023-03-23T03:16:23;9.15;;;2.85;;
59145;SDS011;44928;53.074;6.646;2023-03-23T03:19:14;9.13;;;3.28;;
59145;SDS011;44928;53.074;6.646;2023-03-23T03:21:54;9.38;;;3.38;;
59145;SDS011;44928;53.074;6.646;2023-03-23T03:24:24;11.60;;;3.38;;
59145;SDS011;44928;53.074;6.646;2023-03-23T03:26:53;8.93;;;2.55;;
59145;SDS011;44928;53.074;6.646;2023-03-23T03:29:29;8.82;;;2.90;;
59145;SDS011;44928;53.074;6.646;2023-03-23T03:31:59;9.93;;;2.80;;
59145;SDS011;44928;53.074;6.646;2023-03-23T03:34:30;8.45;;;2.78;;
59145;SDS011;44928;53.074;6.646;2023-03-23T03:36:57;9.63;;;3.00;;
59145;SDS011;44928;53.074;6.646;2023-03-23T03:39:24;11.48;;;3.28;;
59145;SDS011;44928;53.074;6.646;2023-03-23T03:41:50;8.57;;;2.80;;
59145;SDS011;44928;53.074;6.646;2023-03-23T03:44:16;6.80;;;2.85;;
59145;SDS011;44928;53.074;6.646;2023-03-23T03:46:42;7.82;;;3.22;;
59145;SDS011;44928;53.074;6.646;2023-03-23T03:49:09;7.50;;;3.05;;
59145;SDS011;44928;53.074;6.646;2023-03-23T03:51:38;7.53;;;3.40;;
59145;SDS011;44928;53.074;6.646;2023-03-23T03:54:04;9.10;;;3.35;;
59145;SDS011;44928;53.074;6.646;2023-03-23T03:56:30;8.45;;;2.80;;
59145;SDS011;44928;53.074;6.646;2023-03-23T03:59:05;8.27;;;3.20;;
59145;SDS011;44928;53.074;6.646;2023-03-23T04:01:33;8.48;;;3.08;;
59145;SDS011;44928;53.074;6.646;2023-03-23T04:03:59;8.32;;;3.03;;
59145;SDS011;44928;53.074;6.646;2023-03-23T04:06:25;7.47;;;3.45;;
59145;SDS011;44928;53.074;6.646;2023-03-23T04:08:53;8.40;;;3.65;;
59145;SDS011;44928;53.074;6.646;2023-03-23T04:11:24;8.18;;;3.65;;
59145;SDS011;44928;53.074;6.646;2023-03-23T04:13:51;8.65;;;3.63;;
59145;SDS011;44928;53.074;6.646;2023-03-23T04:16:17;9.55;;;3.50;;
59145;SDS011;44928;53.074;6.646;2023-03-23T04:18:43;10.48;;;3.58;;
59145;SDS011;44928;53.074;6.646;2023-03-23T04:21:09;8.23;;;3.33;;
59145;SDS011;44928;53.074;6.646;2023-03-23T04:23:35;9.45;;;3.55;;
59145;SDS011;44928;53.074;6.646;2023-03-23T04:26:02;8.48;;;2.95;;
59145;SDS011;44928;53.074;6.646;2023-03-23T04:28:29;7.57;;;3.33;;
59145;SDS011;44928;53.074;6.646;2023-03-23T04:30:59;7.90;;;3.25;;
59145;SDS011;44928;53.074;6.646;2023-03-23T04:33:26;9.02;;;3.53;;
59145;SDS011;44928;53.074;6.646;2023-03-23T04:35:55;9.90;;;3.10;;
59145;SDS011;44928;53.074;6.646;2023-03-23T04:38:26;8.40;;;3.10;;
59145;SDS011;44928;53.074;6.646;2023-03-23T04:40:53;10.38;;;3.95;;
59145;SDS011;44928;53.074;6.646;2023-03-23T04:43:20;12.48;;;4.40;;
59145;SDS011;44928;53.074;6.646;2023-03-23T04:45:58;9.18;;;3.60;;
59145;SDS011;44928;53.074;6.646;2023-03-23T04:48:27;7.45;;;2.63;;
59145;SDS011;44928;53.074;6.646;2023-03-23T04:50:55;9.15;;;3.17;;
59145;SDS011;44928;53.074;6.646;2023-03-23T04:53:21;9.98;;;2.92;;
59145;SDS011;44928;53.074;6.646;2023-03-23T04:55:47;9.48;;;2.63;;
59145;SDS011;44928;53.074;6.646;2023-03-23T04:58:14;6.93;;;2.58;;
59145;SDS011;44928;53.074;6.646;2023-03-23T05:00:41;10.88;;;2.55;;
59145;SDS011;44928;53.074;6.646;2023-03-23T05:03:15;8.02;;;1.80;;
59145;SDS011;44928;53.074;6.646;2023-03-23T05:05:46;8.82;;;2.30;;
59145;SDS011;44928;53.074;6.646;2023-03-23T05:08:17;7.20;;;1.83;;
59145;SDS011;44928;53.074;6.646;2023-03-23T05:10:51;7.20;;;1.73;;
59145;SDS011;44928;53.074;6.646;2023-03-23T05:13:18;8.10;;;1.92;;
59145;SDS011;44928;53.074;6.646;2023-03-23T05:15:44;6.90;;;1.60;;
59145;SDS011;44928;53.074;6.646;2023-03-23T05:18:10;8.63;;;2.35;;
59145;SDS011;44928;53.074;6.646;2023-03-23T05:20:36;9.25;;;1.98;;
59145;SDS011;44928;53.074;6.646;2023-03-23T05:23:02;9.20;;;2.08;;
59145;SDS011;44928;53.074;6.646;2023-03-23T05:25:28;8.57;;;1.80;;
59145;SDS011;44928;53.074;6.646;2023-03-23T05:27:54;8.18;;;2.20;;
59145;SDS011;44928;53.074;6.646;2023-03-23T05:30:20;7.93;;;1.75;;
59145;SDS011;44928;53.074;6.646;2023-03-23T05:32:47;9.32;;;1.88;;
59145;SDS011;44928;53.074;6.646;2023-03-23T05:35:17;10.60;;;1.83;;
59145;SDS011;44928;53.074;6.646;2023-03-23T05:37:44;8.82;;;2.08;;
59145;SDS011;44928;53.074;6.646;2023-03-23T05:40:11;10.68;;;1.98;;
59145;SDS011;44928;53.074;6.646;2023-03-23T05:42:38;10.50;;;2.55;;
59145;SDS011;44928;53.074;6.646;2023-03-23T05:45:06;12.75;;;2.17;;
59145;SDS011;44928;53.074;6.646;2023-03-23T05:47:34;12.23;;;2.10;;
59145;SDS011;44928;53.074;6.646;2023-03-23T05:50:00;13.27;;;2.75;;
59145;SDS011;44928;53.074;6.646;2023-03-23T05:52:27;12.00;;;1.88;;
59145;SDS011;44928;53.074;6.646;2023-03-23T05:54:53;15.90;;;2.30;;
59145;SDS011;44928;53.074;6.646;2023-03-23T05:57:18;14.13;;;3.30;;
59145;SDS011;44928;53.074;6.646;2023-03-23T05:59:47;13.77;;;2.85;;
59145;SDS011;44928;53.074;6.646;2023-03-23T06:02:13;9.90;;;2.47;;
59145;SDS011;44928;53.074;6.646;2023-03-23T06:04:39;11.82;;;2.60;;
59145;SDS011;44928;53.074;6.646;2023-03-23T06:07:06;10.77;;;2.20;;
59145;SDS011;44928;53.074;6.646;2023-03-23T06:09:32;13.48;;;2.40;;
59145;SDS011;44928;53.074;6.646;2023-03-23T06:11:58;11.35;;;2.78;;
59145;SDS011;44928;53.074;6.646;2023-03-23T06:14:24;9.00;;;2.38;;
59145;SDS011;44928;53.074;6.646;2023-03-23T06:16:51;11.23;;;2.50;;
59145;SDS011;44928;53.074;6.646;2023-03-23T06:19:17;10.40;;;2.55;;
59145;SDS011;44928;53.074;6.646;2023-03-23T06:21:43;11.95;;;2.33;;
59145;SDS011;44928;53.074;6.646;2023-03-23T06:24:08;13.55;;;2.20;;
59145;SDS011;44928;53.074;6.646;2023-03-23T06:26:36;14.27;;;2.20;;
59145;SDS011;44928;53.074;6.646;2023-03-23T06:29:03;11.75;;;2.60;;
59145;SDS011;44928;53.074;6.646;2023-03-23T06:31:36;13.07;;;2.28;;
59145;SDS011;44928;53.074;6.646;2023-03-23T06:34:07;17.77;;;3.05;;
59145;SDS011;44928;53.074;6.646;2023-03-23T06:36:35;11.13;;;2.42;;
59145;SDS011;44928;53.074;6.646;2023-03-23T06:39:01;12.35;;;2.83;;
59145;SDS011;44928;53.074;6.646;2023-03-23T06:41:29;15.02;;;2.85;;
59145;SDS011;44928;53.074;6.646;2023-03-23T06:43:57;12.57;;;2.22;;
59145;SDS011;44928;53.074;6.646;2023-03-23T06:46:23;15.60;;;2.53;;
59145;SDS011;44928;53.074;6.646;2023-03-23T06:48:49;12.15;;;2.75;;
59145;SDS011;44928;53.074;6.646;2023-03-23T06:51:16;14.18;;;2.60;;
59145;SDS011;44928;53.074;6.646;2023-03-23T06:53:42;12.85;;;2.80;;
59145;SDS011;44928;53.074;6.646;2023-03-23T06:56:08;12.68;;;2.53;;
59145;SDS011;44928;53.074;6.646;2023-03-23T06:58:34;14.02;;;2.75;;
59145;SDS011;44928;53.074;6.646;2023-03-23T07:01:00;11.35;;;2.75;;
59145;SDS011;44928;53.074;6.646;2023-03-23T07:03:26;13.90;;;2.72;;
59145;SDS011;44928;53.074;6.646;2023-03-23T07:05:53;12.13;;;3.03;;
59145;SDS011;44928;53.074;6.646;2023-03-23T07:08:20;16.33;;;3.55;;
59145;SDS011;44928;53.074;6.646;2023-03-23T07:10:46;19.73;;;3.55;;
59145;SDS011;44928;53.074;6.646;2023-03-23T07:13:12;14.38;;;2.70;;
59145;SDS011;44928;53.074;6.646;2023-03-23T07:15:38;20.65;;;3.58;;
59145;SDS011;44928;53.074;6.646;2023-03-23T07:18:05;17.40;;;3.13;;
59145;SDS011;44928;53.074;6.646;2023-03-23T07:20:30;18.60;;;4.03;;
59145;SDS011;44928;53.074;6.646;2023-03-23T07:22:57;16.05;;;3.58;;
59145;SDS011;44928;53.074;6.646;2023-03-23T07:25:23;16.23;;;3.72;;
59145;SDS011;44928;53.074;6.646;2023-03-23T07:27:48;12.05;;;2.72;;
59145;SDS011;44928;53.074;6.646;2023-03-23T07:30:14;16.48;;;3.75;;
59145;SDS011;44928;53.074;6.646;2023-03-23T07:32:40;13.45;;;3.15;;
59145;SDS011;44928;53.074;6.646;2023-03-23T07:35:07;18.05;;;3.53;;
59145;SDS011;44928;53.074;6.646;2023-03-23T07:37:34;14.38;;;2.92;;
59145;SDS011;44928;53.074;6.646;2023-03-23T07:40:01;18.45;;;3.00;;
59145;SDS011;44928;53.074;6.646;2023-03-23T07:42:51;19.83;;;3.90;;
59145;SDS011;44928;53.074;6.646;2023-03-23T07:45:18;20.02;;;3.55;;
59145;SDS011;44928;53.074;6.646;2023-03-23T07:47:44;17.35;;;3.40;;
59145;SDS011;44928;53.074;6.646;2023-03-23T07:50:10;21.52;;;3.25;;
59145;SDS011;44928;53.074;6.646;2023-03-23T07:52:37;17.40;;;3.15;;
59145;SDS011;44928;53.074;6.646;2023-03-23T07:55:05;17.98;;;3.10;;
59145;SDS011;44928;53.074;6.646;2023-03-23T07:57:31;18.13;;;3.67;;
59145;SDS011;44928;53.074;6.646;2023-03-23T07:59:58;16.58;;;3.33;;
59145;SDS011;44928;53.074;6.646;2023-03-23T08:02:25;17.23;;;3.40;;
59145;SDS011;44928;53.074;6.646;2023-03-23T08:04:52;20.58;;;3.70;;
59145;SDS011;44928;53.074;6.646;2023-03-23T08:07:19;16.25;;;3.83;;
59145;SDS011;44928;53.074;6.646;2023-03-23T08:09:47;17.13;;;3.22;;
59145;SDS011;44928;53.074;6.646;2023-03-23T08:12:13;20.25;;;3.63;;
59145;SDS011;44928;53.074;6.646;2023-03-23T08:14:39;19.92;;;3.78;;
59145;SDS011;44928;53.074;6.646;2023-03-23T08:17:06;19.90;;;3.95;;
59145;SDS011;44928;53.074;6.646;2023-03-23T08:19:34;14.93;;;3.30;;
59145;SDS011;44928;53.074;6.646;2023-03-23T08:22:04;19.60;;;4.00;;
59145;SDS011;44928;53.074;6.646;2023-03-23T08:24:30;17.95;;;3.15;;
59145;SDS011;44928;53.074;6.646;2023-03-23T08:26:58;23.02;;;4.00;;
59145;SDS011;44928;53.074;6.646;2023-03-23T08:29:25;15.50;;;3.92;;
59145;SDS011;44928;53.074;6.646;2023-03-23T08:31:51;17.55;;;3.70;;
59145;SDS011;44928;53.074;6.646;2023-03-23T08:34:18;21.27;;;4.15;;
59145;SDS011;44928;53.074;6.646;2023-03-23T08:36:45;18.55;;;3.60;;
59145;SDS011;44928;53.074;6.646;2023-03-23T08:39:11;20.77;;;4.50;;
59145;SDS011;44928;53.074;6.646;2023-03-23T08:41:39;19.90;;;4.53;;
59145;SDS011;44928;53.074;6.646;2023-03-23T08:44:05;21.95;;;4.10;;
59145;SDS011;44928;53.074;6.646;2023-03-23T08:46:33;20.05;;;4.03;;
59145;SDS011;44928;53.074;6.646;2023-03-23T08:48:59;15.98;;;3.90;;
59145;SDS011;44928;53.074;6.646;2023-03-23T08:51:25;16.85;;;3.47;;
59145;SDS011;44928;53.074;6.646;2023-03-23T08:53:51;20.25;;;3.95;;
59145;SDS011;44928;53.074;6.646;2023-03-23T08:56:17;24.10;;;5.07;;
59145;SDS011;44928;53.074;6.646;2023-03-23T08:58:43;25.55;;;4.15;;
59145;SDS011;44928;53.074;6.646;2023-03-23T09:01:09;16.10;;;3.67;;
59145;SDS011;44928;53.074;6.646;2023-03-23T09:03:36;21.30;;;4.78;;
59145;SDS011;44928;53.074;6.646;2023-03-23T09:06:03;20.52;;;4.05;;
59145;SDS011;44928;53.074;6.646;2023-03-23T09:08:30;30.75;;;5.50;;
59145;SDS011;44928;53.074;6.646;2023-03-23T09:11:00;22.70;;;4.55;;
59145;SDS011;44928;53.074;6.646;2023-03-23T09:13:27;22.80;;;4.50;;
59145;SDS011;44928;53.074;6.646;2023-03-23T09:15:54;19.20;;;4.60;;
59145;SDS011;44928;53.074;6.646;2023-03-23T09:18:20;25.38;;;4.63;;
59145;SDS011;44928;53.074;6.646;2023-03-23T09:20:46;23.05;;;5.30;;
59145;SDS011;44928;53.074;6.646;2023-03-23T09:23:15;22.27;;;4.22;;
59145;SDS011;44928;53.074;6.646;2023-03-23T09:25:41;18.90;;;4.05;;
59145;SDS011;44928;53.074;6.646;2023-03-23T09:28:07;20.42;;;4.93;;
59145;SDS011;44928;53.074;6.646;2023-03-23T09:30:33;20.20;;;4.43;;
59145;SDS011;44928;53.074;6.646;2023-03-23T09:33:01;19.20;;;3.67;;
59145;SDS011;44928;53.074;6.646;2023-03-23T09:35:28;19.45;;;4.45;;
59145;SDS011;44928;53.074;6.646;2023-03-23T09:37:56;20.02;;;3.70;;
59145;SDS011;44928;53.074;6.646;2023-03-23T09:40:27;20.23;;;3.70;;
59145;SDS011;44928;53.074;6.646;2023-03-23T09:49:24;22.20;;;4.43;;
59145;SDS011;44928;53.074;6.646;2023-03-23T09:52:26;20.50;;;4.20;;
59145;SDS011;44928;53.074;6.646;2023-03-23T09:54:57;19.33;;;4.75;;
59145;SDS011;44928;53.074;6.646;2023-03-23T09:57:26;18.77;;;3.97;;
59145;SDS011;44928;53.074;6.646;2023-03-23T10:00:11;18.42;;;3.67;;
59145;SDS011;44928;53.074;6.646;2023-03-23T10:02:45;17.48;;;3.75;;
59145;SDS011;44928;53.074;6.646;2023-03-23T10:05:34;17.88;;;3.83;;
59145;SDS011;44928;53.074;6.646;2023-03-23T10:08:05;20.98;;;3.47;;
59145;SDS011;44928;53.074;6.646;2023-03-23T10:15:56;16.88;;;3.72;;
59145;SDS011;44928;53.074;6.646;2023-03-23T10:18:36;23.08;;;4.75;;
59145;SDS011;44928;53.074;6.646;2023-03-23T10:21:11;15.63;;;3.92;;
59145;SDS011;44928;53.074;6.646;2023-03-23T10:24:04;16.58;;;3.75;;
59145;SDS011;44928;53.074;6.646;2023-03-23T10:26:40;17.33;;;3.92;;
59145;SDS011;44928;53.074;6.646;2023-03-23T10:29:23;14.13;;;2.70;;
59145;SDS011;44928;53.074;6.646;2023-03-23T10:31:58;17.30;;;3.78;;
59145;SDS011;44928;53.074;6.646;2023-03-23T10:39:49;15.40;;;2.72;;
59145;SDS011;44928;53.074;6.646;2023-03-23T10:42:38;21.02;;;3.50;;
59145;SDS011;44928;53.074;6.646;2023-03-23T10:45:26;13.50;;;2.28;;
59145;SDS011;44928;53.074;6.646;2023-03-23T10:47:54;16.65;;;3.20;;
59145;SDS011;44928;53.074;6.646;2023-03-23T10:50:29;16.02;;;3.33;;
59145;SDS011;44928;53.074;6.646;2023-03-23T10:52:58;14.32;;;2.88;;
59145;SDS011;44928;53.074;6.646;2023-03-23T10:55:34;14.85;;;3.22;;
59145;SDS011;44928;53.074;6.646;2023-03-23T10:58:26;15.15;;;3.33;;
59145;SDS011;44928;53.074;6.646;2023-03-23T11:00:55;14.35;;;2.85;;
59145;SDS011;44928;53.074;6.646;2023-03-23T11:06:03;12.00;;;2.47;;
59145;SDS011;44928;53.074;6.646;2023-03-23T11:08:34;14.13;;;3.00;;
59145;SDS011;44928;53.074;6.646;2023-03-23T11:11:16;13.73;;;2.20;;
59145;SDS011;44928;53.074;6.646;2023-03-23T11:13:48;12.77;;;2.00;;
59145;SDS011;44928;53.074;6.646;2023-03-23T11:16:26;13.07;;;2.45;;
59145;SDS011;44928;53.074;6.646;2023-03-23T11:19:00;12.55;;;2.75;;
59145;SDS011;44928;53.074;6.646;2023-03-23T11:21:37;11.13;;;1.95;;
59145;SDS011;44928;53.074;6.646;2023-03-23T11:24:04;13.10;;;2.45;;
59145;SDS011;44928;53.074;6.646;2023-03-23T11:26:32;13.23;;;3.15;;
59145;SDS011;44928;53.074;6.646;2023-03-23T11:29:15;13.68;;;2.92;;
59145;SDS011;44928;53.074;6.646;2023-03-23T11:31:48;12.77;;;2.60;;
59145;SDS011;44928;53.074;6.646;2023-03-23T11:36:58;12.15;;;2.38;;
59145;SDS011;44928;53.074;6.646;2023-03-23T11:41:59;13.32;;;2.75;;
59145;SDS011;44928;53.074;6.646;2023-03-23T11:44:34;13.05;;;2.60;;
59145;SDS011;44928;53.074;6.646;2023-03-23T11:47:27;15.73;;;2.85;;
59145;SDS011;44928;53.074;6.646;2023-03-23T11:53:09;12.90;;;2.42;;
59145;SDS011;44928;53.074;6.646;2023-03-23T11:56:10;10.70;;;3.15;;
59145;SDS011;44928;53.074;6.646;2023-03-23T11:58:43;11.23;;;2.45;;
59145;SDS011;44928;53.074;6.646;2023-03-23T12:07:00;12.02;;;3.15;;
59145;SDS011;44928;53.074;6.646;2023-03-23T12:26:31;11.73;;;1.80;;
59145;SDS011;44928;53.074;6.646;2023-03-23T12:30:02;10.63;;;2.13;;
59145;SDS011;44928;53.074;6.646;2023-03-23T12:37:43;10.05;;;2.05;;
59145;SDS011;44928;53.074;6.646;2023-03-23T12:40:30;14.15;;;2.65;;
59145;SDS011;44928;53.074;6.646;2023-03-23T12:46:12;13.07;;;2.65;;
59145;SDS011;44928;53.074;6.646;2023-03-23T12:48:56;12.07;;;2.17;;
59145;SDS011;44928;53.074;6.646;2023-03-23T12:54:46;11.20;;;2.35;;
59145;SDS011;44928;53.074;6.646;2023-03-23T13:02:29;11.45;;;2.70;;
59145;SDS011;44928;53.074;6.646;2023-03-23T13:05:08;10.70;;;2.35;;
59145;SDS011;44928;53.074;6.646;2023-03-23T13:10:27;14.55;;;2.83;;
59145;SDS011;44928;53.074;6.646;2023-03-23T13:18:07;13.88;;;2.83;;
59145;SDS011;44928;53.074;6.646;2023-03-23T13:20:45;12.90;;;2.70;;
59145;SDS011;44928;53.074;6.646;2023-03-23T13:28:47;11.52;;;2.60;;
59145;SDS011;44928;53.074;6.646;2023-03-23T13:31:20;15.07;;;2.70;;
59145;SDS011;44928;53.074;6.646;2023-03-23T13:33:51;14.68;;;2.88;;
59145;SDS011;44928;53.074;6.646;2023-03-23T13:36:24;9.80;;;2.13;;
59145;SDS011;44928;53.074;6.646;2023-03-23T13:39:02;14.75;;;2.35;;
59145;SDS011;44928;53.074;6.646;2023-03-23T13:44:39;15.02;;;3.05;;
59145;SDS011;44928;53.074;6.646;2023-03-23T13:52:23;13.68;;;2.50;;
59145;SDS011;44928;53.074;6.646;2023-03-23T13:57:50;11.77;;;2.45;;
59145;SDS011;44928;53.074;6.646;2023-03-23T14:05:35;10.30;;;2.35;;
59145;SDS011;44928;53.074;6.646;2023-03-23T14:08:11;12.32;;;2.63;;
59145;SDS011;44928;53.074;6.646;2023-03-23T14:10:41;14.63;;;2.50;;
59145;SDS011;44928;53.074;6.646;2023-03-23T14:13:17;13.77;;;2.65;;
59145;SDS011;44928;53.074;6.646;2023-03-23T14:16:05;12.07;;;2.60;;
59145;SDS011;44928;53.074;6.646;2023-03-23T14:18:59;13.45;;;2.88;;
59145;SDS011;44928;53.074;6.646;2023-03-23T14:26:38;9.63;;;2.50;;
59145;SDS011;44928;53.074;6.646;2023-03-23T14:29:05;10.75;;;2.35;;
59145;SDS011;44928;53.074;6.646;2023-03-23T14:31:31;14.15;;;2.80;;
59145;SDS011;44928;53.074;6.646;2023-03-23T14:34:01;12.75;;;2.70;;
59145;SDS011;44928;53.074;6.646;2023-03-23T14:36:29;10.25;;;2.33;;
59145;SDS011;44928;53.074;6.646;2023-03-23T14:38:59;12.88;;;2.47;;
59145;SDS011;44928;53.074;6.646;2023-03-23T14:41:32;13.30;;;2.65;;
59145;SDS011;44928;53.074;6.646;2023-03-23T14:44:00;10.07;;;2.75;;
59145;SDS011;44928;53.074;6.646;2023-03-23T14:46:29;12.88;;;2.35;;
59145;SDS011;44928;53.074;6.646;2023-03-23T14:48:56;12.15;;;3.05;;
59145;SDS011;44928;53.074;6.646;2023-03-23T14:51:25;13.20;;;2.67;;
59145;SDS011;44928;53.074;6.646;2023-03-23T14:53:52;12.27;;;2.45;;
59145;SDS011;44928;53.074;6.646;2023-03-23T14:56:19;11.13;;;2.13;;
59145;SDS011;44928;53.074;6.646;2023-03-23T14:58:49;10.57;;;2.13;;
59145;SDS011;44928;53.074;6.646;2023-03-23T15:01:26;11.07;;;2.53;;
59145;SDS011;44928;53.074;6.646;2023-03-23T15:03:58;9.10;;;2.42;;
59145;SDS011;44928;53.074;6.646;2023-03-23T15:06:38;9.32;;;1.80;;
59145;SDS011;44928;53.074;6.646;2023-03-23T15:09:07;12.93;;;2.33;;
59145;SDS011;44928;53.074;6.646;2023-03-23T15:11:38;9.00;;;2.00;;
59145;SDS011;44928;53.074;6.646;2023-03-23T15:14:15;11.90;;;2.40;;
59145;SDS011;44928;53.074;6.646;2023-03-23T15:16:52;13.25;;;2.97;;
59145;SDS011;44928;53.074;6.646;2023-03-23T15:19:36;9.80;;;2.28;;
59145;SDS011;44928;53.074;6.646;2023-03-23T15:22:06;10.95;;;2.45;;
59145;SDS011;44928;53.074;6.646;2023-03-23T15:24:50;14.00;;;2.20;;
59145;SDS011;44928;53.074;6.646;2023-03-23T15:27:26;11.55;;;2.35;;
59145;SDS011;44928;53.074;6.646;2023-03-23T15:29:56;12.65;;;2.30;;
59145;SDS011;44928;53.074;6.646;2023-03-23T15:32:30;12.07;;;2.33;;
59145;SDS011;44928;53.074;6.646;2023-03-23T15:35:03;11.82;;;2.10;;
59145;SDS011;44928;53.074;6.646;2023-03-23T15:37:38;12.48;;;2.33;;
59145;SDS011;44928;53.074;6.646;2023-03-23T15:40:15;10.40;;;2.30;;
59145;SDS011;44928;53.074;6.646;2023-03-23T15:42:42;11.35;;;2.28;;
59145;SDS011;44928;53.074;6.646;2023-03-23T15:47:38;10.15;;;2.30;;
59145;SDS011;44928;53.074;6.646;2023-03-23T15:52:43;11.30;;;2.60;;
59145;SDS011;44928;53.074;6.646;2023-03-23T15:57:50;12.20;;;2.20;;
59145;SDS011;44928;53.074;6.646;2023-03-23T16:00:18;15.38;;;2.53;;
59145;SDS011;44928;53.074;6.646;2023-03-23T16:05:42;10.38;;;2.35;;
59145;SDS011;44928;53.074;6.646;2023-03-23T16:08:09;12.63;;;2.67;;
59145;SDS011;44928;53.074;6.646;2023-03-23T16:10:36;10.00;;;2.22;;
59145;SDS011;44928;53.074;6.646;2023-03-23T16:13:02;13.02;;;2.45;;
59145;SDS011;44928;53.074;6.646;2023-03-23T16:15:29;14.57;;;2.90;;
59145;SDS011;44928;53.074;6.646;2023-03-23T16:17:55;14.02;;;2.80;;
59145;SDS011;44928;53.074;6.646;2023-03-23T16:20:21;18.17;;;3.45;;
59145;SDS011;44928;53.074;6.646;2023-03-23T16:22:48;15.45;;;2.92;;
59145;SDS011;44928;53.074;6.646;2023-03-23T16:25:15;12.48;;;2.70;;
59145;SDS011;44928;53.074;6.646;2023-03-23T16:27:43;12.80;;;2.50;;
59145;SDS011;44928;53.074;6.646;2023-03-23T16:30:15;12.30;;;3.03;;
59145;SDS011;44928;53.074;6.646;2023-03-23T16:32:41;13.25;;;2.72;;
59145;SDS011;44928;53.074;6.646;2023-03-23T16:35:08;18.77;;;2.97;;
59145;SDS011;44928;53.074;6.646;2023-03-23T16:37:35;14.20;;;2.85;;
59145;SDS011;44928;53.074;6.646;2023-03-23T16:40:01;12.95;;;2.95;;
59145;SDS011;44928;53.074;6.646;2023-03-23T16:42:28;10.82;;;2.55;;
59145;SDS011;44928;53.074;6.646;2023-03-23T16:44:53;14.05;;;2.80;;
59145;SDS011;44928;53.074;6.646;2023-03-23T16:47:20;12.50;;;2.67;;
59145;SDS011;44928;53.074;6.646;2023-03-23T16:49:49;13.57;;;2.83;;
59145;SDS011;44928;53.074;6.646;2023-03-23T16:52:16;12.30;;;2.88;;
59145;SDS011;44928;53.074;6.646;2023-03-23T16:54:42;13.05;;;2.97;;
59145;SDS011;44928;53.074;6.646;2023-03-23T16:57:08;14.02;;;2.72;;
59145;SDS011;44928;53.074;6.646;2023-03-23T16:59:34;12.52;;;2.63;;
59145;SDS011;44928;53.074;6.646;2023-03-23T17:02:00;12.65;;;2.60;;
59145;SDS011;44928;53.074;6.646;2023-03-23T17:04:28;16.63;;;3.05;;